sensor_id;sensor_type;location;lat;lon;timestamp;temperature;humidity
19920;DHT22;10122;50.074;19.920;2022-07-23T00:00:06;25.40;99.90
19920;DHT22;10122;50.074;19.920;2022-07-23T00:02:32;25.40;99.90
19920;DHT22;10122;50.074;19.920;2022-07-23T00:04:58;25.40;99.90
19920;DHT22;10122;50.074;19.920;2022-07-23T00:07:24;25.40;99.90
19920;DHT22;10122;50.074;19.920;2022-07-23T00:09:49;25.40;99.90
19920;DHT22;10122;50.074;19.920;2022-07-23T00:12:15;25.30;99.90
19920;DHT22;10122;50.074;19.920;2022-07-23T00:14:40;25.30;99.90
19920;DHT22;10122;50.074;19.920;2022-07-23T00:17:06;25.20;99.90
19920;DHT22;10122;50.074;19.920;2022-07-23T00:19:32;25.20;99.90
19920;DHT22;10122;50.074;19.920;2022-07-23T00:21:58;25.20;99.90
19920;DHT22;10122;50.074;19.920;2022-07-23T00:24:23;25.20;99.90
19920;DHT22;10122;50.074;19.920;2022-07-23T00:26:49;25.10;99.90
19920;DHT22;10122;50.074;19.920;2022-07-23T00:29:15;25.10;99.90
19920;DHT22;10122;50.074;19.920;2022-07-23T00:31:40;25.00;99.90
19920;DHT22;10122;50.074;19.920;2022-07-23T00:34:06;25.00;99.90
19920;DHT22;10122;50.074;19.920;2022-07-23T00:36:32;25.00;99.90
19920;DHT22;10122;50.074;19.920;2022-07-23T00:38:58;24.90;99.90
19920;DHT22;10122;50.074;19.920;2022-07-23T00:41:23;24.90;99.90
19920;DHT22;10122;50.074;19.920;2022-07-23T00:43:49;24.90;99.90
19920;DHT22;10122;50.074;19.920;2022-07-23T00:46:21;24.90;99.90
19920;DHT22;10122;50.074;19.920;2022-07-23T00:48:48;24.90;99.90
19920;DHT22;10122;50.074;19.920;2022-07-23T00:51:17;24.90;99.90
19920;DHT22;10122;50.074;19.920;2022-07-23T00:53:44;24.90;99.90
19920;DHT22;10122;50.074;19.920;2022-07-23T00:56:10;24.90;99.90
19920;DHT22;10122;50.074;19.920;2022-07-23T00:58:36;24.90;99.90
19920;DHT22;10122;50.074;19.920;2022-07-23T01:01:03;24.80;99.90
19920;DHT22;10122;50.074;19.920;2022-07-23T01:03:29;24.70;99.90
19920;DHT22;10122;50.074;19.920;2022-07-23T01:05:55;24.70;99.90
19920;DHT22;10122;50.074;19.920;2022-07-23T01:08:21;24.60;99.90
19920;DHT22;10122;50.074;19.920;2022-07-23T01:10:48;24.60;99.90
19920;DHT22;10122;50.074;19.920;2022-07-23T01:13:14;24.50;99.90
19920;DHT22;10122;50.074;19.920;2022-07-23T01:15:39;24.40;99.90
19920;DHT22;10122;50.074;19.920;2022-07-23T01:18:06;24.30;99.90
19920;DHT22;10122;50.074;19.920;2022-07-23T01:20:32;24.20;99.90
19920;DHT22;10122;50.074;19.920;2022-07-23T01:22:58;24.20;99.90
19920;DHT22;10122;50.074;19.920;2022-07-23T01:25:25;24.10;99.90
19920;DHT22;10122;50.074;19.920;2022-07-23T01:27:54;24.20;99.90
19920;DHT22;10122;50.074;19.920;2022-07-23T01:30:19;24.20;99.90
19920;DHT22;10122;50.074;19.920;2022-07-23T01:32:45;24.20;99.90
19920;DHT22;10122;50.074;19.920;2022-07-23T01:35:11;24.10;99.90
19920;DHT22;10122;50.074;19.920;2022-07-23T01:37:37;24.10;99.90
19920;DHT22;10122;50.074;19.920;2022-07-23T01:40:05;24.20;99.90
19920;DHT22;10122;50.074;19.920;2022-07-23T01:42:31;24.20;99.90
19920;DHT22;10122;50.074;19.920;2022-07-23T01:44:57;24.10;99.90
19920;DHT22;10122;50.074;19.920;2022-07-23T01:47:22;24.10;99.90
19920;DHT22;10122;50.074;19.920;2022-07-23T01:49:48;23.90;99.90
19920;DHT22;10122;50.074;19.920;2022-07-23T01:52:14;23.90;99.90
19920;DHT22;10122;50.074;19.920;2022-07-23T01:54:40;23.80;99.90
19920;DHT22;10122;50.074;19.920;2022-07-23T01:57:07;23.80;99.90
19920;DHT22;10122;50.074;19.920;2022-07-23T01:59:33;23.80;99.90
19920;DHT22;10122;50.074;19.920;2022-07-23T02:01:59;23.70;99.90
19920;DHT22;10122;50.074;19.920;2022-07-23T02:04:25;23.70;99.90
19920;DHT22;10122;50.074;19.920;2022-07-23T02:06:52;23.70;99.90
19920;DHT22;10122;50.074;19.920;2022-07-23T02:09:18;23.60;99.90
19920;DHT22;10122;50.074;19.920;2022-07-23T02:11:45;23.60;99.90
19920;DHT22;10122;50.074;19.920;2022-07-23T02:14:10;23.50;99.90
19920;DHT22;10122;50.074;19.920;2022-07-23T02:16:36;23.40;99.90
19920;DHT22;10122;50.074;19.920;2022-07-23T02:19:03;23.40;99.90
19920;DHT22;10122;50.074;19.920;2022-07-23T02:21:29;23.40;99.90
19920;DHT22;10122;50.074;19.920;2022-07-23T02:23:54;23.30;99.90
19920;DHT22;10122;50.074;19.920;2022-07-23T02:26:20;23.30;99.90
19920;DHT22;10122;50.074;19.920;2022-07-23T02:28:45;23.30;99.90
19920;DHT22;10122;50.074;19.920;2022-07-23T02:31:11;23.20;99.90
19920;DHT22;10122;50.074;19.920;2022-07-23T02:33:37;23.10;99.90
19920;DHT22;10122;50.074;19.920;2022-07-23T02:36:02;23.10;99.90
19920;DHT22;10122;50.074;19.920;2022-07-23T02:38:28;23.00;99.90
19920;DHT22;10122;50.074;19.920;2022-07-23T02:40:54;23.00;99.90
19920;DHT22;10122;50.074;19.920;2022-07-23T02:43:19;22.90;99.90
19920;DHT22;10122;50.074;19.920;2022-07-23T02:45:45;22.90;99.90
19920;DHT22;10122;50.074;19.920;2022-07-23T02:48:11;22.90;99.90
19920;DHT22;10122;50.074;19.920;2022-07-23T02:50:39;22.90;99.90
19920;DHT22;10122;50.074;19.920;2022-07-23T02:53:05;22.80;99.90
19920;DHT22;10122;50.074;19.920;2022-07-23T02:55:31;22.90;99.90
19920;DHT22;10122;50.074;19.920;2022-07-23T02:57:57;22.80;99.90
19920;DHT22;10122;50.074;19.920;2022-07-23T03:00:23;22.80;99.90
19920;DHT22;10122;50.074;19.920;2022-07-23T03:02:48;22.80;99.90
19920;DHT22;10122;50.074;19.920;2022-07-23T03:05:14;22.80;99.90
19920;DHT22;10122;50.074;19.920;2022-07-23T03:07:40;22.80;99.90
19920;DHT22;10122;50.074;19.920;2022-07-23T03:10:05;22.80;99.90
19920;DHT22;10122;50.074;19.920;2022-07-23T03:12:31;22.80;99.90
19920;DHT22;10122;50.074;19.920;2022-07-23T03:14:57;22.80;99.90
19920;DHT22;10122;50.074;19.920;2022-07-23T03:17:23;22.80;99.90
19920;DHT22;10122;50.074;19.920;2022-07-23T03:19:49;22.90;99.90
19920;DHT22;10122;50.074;19.920;2022-07-23T03:22:14;23.10;99.90
19920;DHT22;10122;50.074;19.920;2022-07-23T03:24:40;23.30;99.90
19920;DHT22;10122;50.074;19.920;2022-07-23T03:27:26;23.40;99.90
19920;DHT22;10122;50.074;19.920;2022-07-23T03:29:53;23.10;99.90
19920;DHT22;10122;50.074;19.920;2022-07-23T03:32:19;22.90;99.90
19920;DHT22;10122;50.074;19.920;2022-07-23T03:34:45;22.80;99.90
19920;DHT22;10122;50.074;19.920;2022-07-23T03:37:11;22.80;99.90
19920;DHT22;10122;50.074;19.920;2022-07-23T03:39:36;22.80;99.90
19920;DHT22;10122;50.074;19.920;2022-07-23T03:42:02;22.70;99.90
19920;DHT22;10122;50.074;19.920;2022-07-23T03:44:28;22.60;99.90
19920;DHT22;10122;50.074;19.920;2022-07-23T03:46:54;22.60;99.90
19920;DHT22;10122;50.074;19.920;2022-07-23T03:49:19;22.60;99.90
19920;DHT22;10122;50.074;19.920;2022-07-23T03:51:45;22.60;99.90
19920;DHT22;10122;50.074;19.920;2022-07-23T03:54:11;22.70;99.90
19920;DHT22;10122;50.074;19.920;2022-07-23T03:56:36;22.70;99.90
19920;DHT22;10122;50.074;19.920;2022-07-23T03:59:02;22.80;99.90
19920;DHT22;10122;50.074;19.920;2022-07-23T04:01:28;22.70;99.90
19920;DHT22;10122;50.074;19.920;2022-07-23T04:03:53;22.70;99.90
19920;DHT22;10122;50.074;19.920;2022-07-23T04:06:20;22.70;99.90
19920;DHT22;10122;50.074;19.920;2022-07-23T04:08:45;22.60;99.90
19920;DHT22;10122;50.074;19.920;2022-07-23T04:11:11;22.60;99.90
19920;DHT22;10122;50.074;19.920;2022-07-23T04:13:36;22.70;99.90
19920;DHT22;10122;50.074;19.920;2022-07-23T04:16:02;22.70;99.90
19920;DHT22;10122;50.074;19.920;2022-07-23T04:18:29;22.60;99.90
19920;DHT22;10122;50.074;19.920;2022-07-23T04:20:55;22.70;99.90
19920;DHT22;10122;50.074;19.920;2022-07-23T04:23:20;22.70;99.90
19920;DHT22;10122;50.074;19.920;2022-07-23T04:25:46;22.70;99.90
19920;DHT22;10122;50.074;19.920;2022-07-23T04:28:12;22.80;99.90
19920;DHT22;10122;50.074;19.920;2022-07-23T04:30:38;22.80;99.90
19920;DHT22;10122;50.074;19.920;2022-07-23T04:33:04;22.80;99.90
19920;DHT22;10122;50.074;19.920;2022-07-23T04:35:35;22.80;99.90
19920;DHT22;10122;50.074;19.920;2022-07-23T04:38:02;22.80;99.90
19920;DHT22;10122;50.074;19.920;2022-07-23T04:40:28;22.90;99.90
19920;DHT22;10122;50.074;19.920;2022-07-23T04:42:54;22.90;99.90
19920;DHT22;10122;50.074;19.920;2022-07-23T04:45:20;22.90;99.90
19920;DHT22;10122;50.074;19.920;2022-07-23T04:47:46;22.90;99.90
19920;DHT22;10122;50.074;19.920;2022-07-23T04:50:12;22.90;99.90
19920;DHT22;10122;50.074;19.920;2022-07-23T04:52:38;23.00;99.90
19920;DHT22;10122;50.074;19.920;2022-07-23T04:55:04;23.00;99.90
19920;DHT22;10122;50.074;19.920;2022-07-23T04:57:30;23.00;99.90
19920;DHT22;10122;50.074;19.920;2022-07-23T04:59:55;23.10;99.90
19920;DHT22;10122;50.074;19.920;2022-07-23T05:02:21;23.20;99.90
19920;DHT22;10122;50.074;19.920;2022-07-23T05:04:47;23.30;99.90
19920;DHT22;10122;50.074;19.920;2022-07-23T05:07:12;23.40;99.90
19920;DHT22;10122;50.074;19.920;2022-07-23T05:09:38;23.50;99.90
19920;DHT22;10122;50.074;19.920;2022-07-23T05:12:04;23.60;99.90
19920;DHT22;10122;50.074;19.920;2022-07-23T05:14:30;23.70;99.90
19920;DHT22;10122;50.074;19.920;2022-07-23T05:16:55;23.70;99.90
19920;DHT22;10122;50.074;19.920;2022-07-23T05:19:21;23.70;99.90
19920;DHT22;10122;50.074;19.920;2022-07-23T05:21:47;23.70;99.90
19920;DHT22;10122;50.074;19.920;2022-07-23T05:24:13;23.70;99.90
19920;DHT22;10122;50.074;19.920;2022-07-23T05:26:38;23.70;99.90
19920;DHT22;10122;50.074;19.920;2022-07-23T05:29:04;23.80;99.90
19920;DHT22;10122;50.074;19.920;2022-07-23T05:31:29;23.80;99.90
19920;DHT22;10122;50.074;19.920;2022-07-23T05:33:55;23.90;99.90
19920;DHT22;10122;50.074;19.920;2022-07-23T05:36:21;23.90;99.90
19920;DHT22;10122;50.074;19.920;2022-07-23T05:38:46;24.00;99.90
19920;DHT22;10122;50.074;19.920;2022-07-23T05:41:12;24.10;99.90
19920;DHT22;10122;50.074;19.920;2022-07-23T05:43:38;24.20;99.90
19920;DHT22;10122;50.074;19.920;2022-07-23T05:46:03;24.30;99.90
19920;DHT22;10122;50.074;19.920;2022-07-23T05:48:29;24.40;99.90
19920;DHT22;10122;50.074;19.920;2022-07-23T05:50:55;24.50;99.90
19920;DHT22;10122;50.074;19.920;2022-07-23T05:53:20;24.60;99.90
19920;DHT22;10122;50.074;19.920;2022-07-23T05:55:46;24.70;99.90
19920;DHT22;10122;50.074;19.920;2022-07-23T05:58:11;24.80;99.90
19920;DHT22;10122;50.074;19.920;2022-07-23T06:00:37;24.80;99.90
19920;DHT22;10122;50.074;19.920;2022-07-23T06:03:03;24.90;99.90
19920;DHT22;10122;50.074;19.920;2022-07-23T06:05:28;25.00;99.90
19920;DHT22;10122;50.074;19.920;2022-07-23T06:07:54;25.10;99.90
19920;DHT22;10122;50.074;19.920;2022-07-23T06:10:20;25.10;99.90
19920;DHT22;10122;50.074;19.920;2022-07-23T06:12:46;25.10;99.90
19920;DHT22;10122;50.074;19.920;2022-07-23T06:15:12;25.50;99.90
19920;DHT22;10122;50.074;19.920;2022-07-23T06:17:38;26.20;99.90
19920;DHT22;10122;50.074;19.920;2022-07-23T06:20:08;26.70;99.90
19920;DHT22;10122;50.074;19.920;2022-07-23T06:22:35;27.30;99.90
19920;DHT22;10122;50.074;19.920;2022-07-23T06:25:01;28.00;99.90
19920;DHT22;10122;50.074;19.920;2022-07-23T06:27:26;28.60;99.90
19920;DHT22;10122;50.074;19.920;2022-07-23T06:29:52;29.20;99.90
19920;DHT22;10122;50.074;19.920;2022-07-23T06:32:18;29.70;99.90
19920;DHT22;10122;50.074;19.920;2022-07-23T06:34:44;30.20;99.90
19920;DHT22;10122;50.074;19.920;2022-07-23T06:37:09;30.70;99.90
19920;DHT22;10122;50.074;19.920;2022-07-23T06:39:35;31.10;97.70
19920;DHT22;10122;50.074;19.920;2022-07-23T06:42:01;31.50;95.90
19920;DHT22;10122;50.074;19.920;2022-07-23T06:44:26;31.90;93.80
19920;DHT22;10122;50.074;19.920;2022-07-23T06:46:52;32.10;92.40
19920;DHT22;10122;50.074;19.920;2022-07-23T06:49:19;32.30;90.80
19920;DHT22;10122;50.074;19.920;2022-07-23T06:51:44;32.60;87.40
19920;DHT22;10122;50.074;19.920;2022-07-23T06:54:10;32.90;83.90
19920;DHT22;10122;50.074;19.920;2022-07-23T06:56:36;33.10;84.40
19920;DHT22;10122;50.074;19.920;2022-07-23T06:59:02;33.20;81.90
19920;DHT22;10122;50.074;19.920;2022-07-23T07:01:27;33.50;79.40
19920;DHT22;10122;50.074;19.920;2022-07-23T07:03:53;33.70;77.40
19920;DHT22;10122;50.074;19.920;2022-07-23T07:06:19;33.90;75.70
19920;DHT22;10122;50.074;19.920;2022-07-23T07:08:44;34.00;77.40
19920;DHT22;10122;50.074;19.920;2022-07-23T07:11:10;34.20;75.80
19920;DHT22;10122;50.074;19.920;2022-07-23T07:13:37;34.30;74.20
19920;DHT22;10122;50.074;19.920;2022-07-23T07:16:04;34.30;75.60
19920;DHT22;10122;50.074;19.920;2022-07-23T07:18:30;34.40;72.30
19920;DHT22;10122;50.074;19.920;2022-07-23T07:20:56;34.50;74.70
19920;DHT22;10122;50.074;19.920;2022-07-23T07:23:22;34.70;70.60
19920;DHT22;10122;50.074;19.920;2022-07-23T07:25:48;34.70;67.30
19920;DHT22;10122;50.074;19.920;2022-07-23T07:28:14;34.70;70.50
19920;DHT22;10122;50.074;19.920;2022-07-23T07:30:39;34.70;72.00
19920;DHT22;10122;50.074;19.920;2022-07-23T07:33:05;34.80;69.00
19920;DHT22;10122;50.074;19.920;2022-07-23T07:35:31;34.80;68.10
19920;DHT22;10122;50.074;19.920;2022-07-23T07:37:58;34.90;67.30
19920;DHT22;10122;50.074;19.920;2022-07-23T07:40:24;34.80;69.60
19920;DHT22;10122;50.074;19.920;2022-07-23T07:42:51;34.80;67.50
19920;DHT22;10122;50.074;19.920;2022-07-23T07:45:19;35.00;69.30
19920;DHT22;10122;50.074;19.920;2022-07-23T07:47:45;35.10;65.80
19920;DHT22;10122;50.074;19.920;2022-07-23T07:50:11;35.20;69.50
19920;DHT22;10122;50.074;19.920;2022-07-23T07:52:36;35.30;72.40
19920;DHT22;10122;50.074;19.920;2022-07-23T07:55:03;35.30;77.90
19920;DHT22;10122;50.074;19.920;2022-07-23T07:57:29;35.40;77.00
19920;DHT22;10122;50.074;19.920;2022-07-23T07:59:55;35.50;75.10
19920;DHT22;10122;50.074;19.920;2022-07-23T08:02:21;35.60;70.80
19920;DHT22;10122;50.074;19.920;2022-07-23T08:04:49;35.40;73.30
19920;DHT22;10122;50.074;19.920;2022-07-23T08:07:15;35.40;77.90
19920;DHT22;10122;50.074;19.920;2022-07-23T08:09:41;35.50;81.50
19920;DHT22;10122;50.074;19.920;2022-07-23T08:12:07;35.60;82.50
19920;DHT22;10122;50.074;19.920;2022-07-23T08:14:33;35.70;82.50
19920;DHT22;10122;50.074;19.920;2022-07-23T08:16:58;35.90;69.90
19920;DHT22;10122;50.074;19.920;2022-07-23T08:19:24;36.00;79.90
19920;DHT22;10122;50.074;19.920;2022-07-23T08:21:50;36.00;81.50
19920;DHT22;10122;50.074;19.920;2022-07-23T08:24:16;36.10;72.10
19920;DHT22;10122;50.074;19.920;2022-07-23T08:26:42;36.10;66.20
19920;DHT22;10122;50.074;19.920;2022-07-23T08:29:07;36.20;68.30
19920;DHT22;10122;50.074;19.920;2022-07-23T08:31:33;36.30;76.10
19920;DHT22;10122;50.074;19.920;2022-07-23T08:33:59;36.30;72.70
19920;DHT22;10122;50.074;19.920;2022-07-23T08:36:25;36.40;72.20
19920;DHT22;10122;50.074;19.920;2022-07-23T08:38:53;36.50;70.90
19920;DHT22;10122;50.074;19.920;2022-07-23T08:41:20;36.40;65.90
19920;DHT22;10122;50.074;19.920;2022-07-23T08:43:55;36.40;73.60
19920;DHT22;10122;50.074;19.920;2022-07-23T08:46:22;36.40;66.70
19920;DHT22;10122;50.074;19.920;2022-07-23T08:48:50;36.50;71.80
19920;DHT22;10122;50.074;19.920;2022-07-23T08:51:17;36.60;71.10
19920;DHT22;10122;50.074;19.920;2022-07-23T08:53:44;36.60;70.60
19920;DHT22;10122;50.074;19.920;2022-07-23T08:56:10;36.70;74.40
19920;DHT22;10122;50.074;19.920;2022-07-23T08:58:36;36.80;74.60
19920;DHT22;10122;50.074;19.920;2022-07-23T09:01:02;36.80;71.60
19920;DHT22;10122;50.074;19.920;2022-07-23T09:03:33;36.90;74.40
19920;DHT22;10122;50.074;19.920;2022-07-23T09:06:00;36.70;69.30
19920;DHT22;10122;50.074;19.920;2022-07-23T09:08:40;36.60;74.40
19920;DHT22;10122;50.074;19.920;2022-07-23T09:11:10;36.50;66.80
19920;DHT22;10122;50.074;19.920;2022-07-23T09:16:30;36.30;63.60
19920;DHT22;10122;50.074;19.920;2022-07-23T09:19:04;36.40;70.70
19920;DHT22;10122;50.074;19.920;2022-07-23T09:26:44;36.60;59.00
19920;DHT22;10122;50.074;19.920;2022-07-23T09:29:18;36.40;66.20
19920;DHT22;10122;50.074;19.920;2022-07-23T09:31:59;36.50;70.00
19920;DHT22;10122;50.074;19.920;2022-07-23T09:36:55;36.60;73.60
19920;DHT22;10122;50.074;19.920;2022-07-23T09:39:30;36.60;70.50
19920;DHT22;10122;50.074;19.920;2022-07-23T09:41:56;36.80;71.60
19920;DHT22;10122;50.074;19.920;2022-07-23T09:44:22;36.80;70.30
19920;DHT22;10122;50.074;19.920;2022-07-23T09:46:49;36.80;65.40
19920;DHT22;10122;50.074;19.920;2022-07-23T09:49:20;36.90;66.00
19920;DHT22;10122;50.074;19.920;2022-07-23T09:56:51;36.90;68.00
19920;DHT22;10122;50.074;19.920;2022-07-23T09:59:17;36.90;65.70
19920;DHT22;10122;50.074;19.920;2022-07-23T10:01:44;37.00;67.00
19920;DHT22;10122;50.074;19.920;2022-07-23T10:04:12;37.00;67.70
19920;DHT22;10122;50.074;19.920;2022-07-23T10:06:39;37.00;68.10
19920;DHT22;10122;50.074;19.920;2022-07-23T10:09:08;37.00;66.10
19920;DHT22;10122;50.074;19.920;2022-07-23T10:11:34;37.10;66.00
19920;DHT22;10122;50.074;19.920;2022-07-23T10:14:00;37.10;67.70
19920;DHT22;10122;50.074;19.920;2022-07-23T10:16:29;37.10;68.40
19920;DHT22;10122;50.074;19.920;2022-07-23T10:18:55;36.90;68.80
19920;DHT22;10122;50.074;19.920;2022-07-23T10:21:39;36.90;69.60
19920;DHT22;10122;50.074;19.920;2022-07-23T10:35:21;36.70;61.20
19920;DHT22;10122;50.074;19.920;2022-07-23T10:38:07;36.80;66.80
19920;DHT22;10122;50.074;19.920;2022-07-23T10:40:36;36.80;67.10
19920;DHT22;10122;50.074;19.920;2022-07-23T10:43:13;36.80;68.80
19920;DHT22;10122;50.074;19.920;2022-07-23T10:45:40;36.70;68.80
19920;DHT22;10122;50.074;19.920;2022-07-23T10:48:25;36.70;64.50
19920;DHT22;10122;50.074;19.920;2022-07-23T10:51:12;36.60;62.60
19920;DHT22;10122;50.074;19.920;2022-07-23T10:59:23;36.40;66.60
19920;DHT22;10122;50.074;19.920;2022-07-23T11:01:49;36.30;59.90
19920;DHT22;10122;50.074;19.920;2022-07-23T11:04:15;36.20;69.70
19920;DHT22;10122;50.074;19.920;2022-07-23T11:09:29;36.20;66.30
19920;DHT22;10122;50.074;19.920;2022-07-23T11:15:10;36.10;69.00
19920;DHT22;10122;50.074;19.920;2022-07-23T11:20:18;35.80;61.00
19920;DHT22;10122;50.074;19.920;2022-07-23T11:25:30;35.80;64.50
19920;DHT22;10122;50.074;19.920;2022-07-23T11:28:16;36.00;67.90
19920;DHT22;10122;50.074;19.920;2022-07-23T11:30:45;35.90;68.20
19920;DHT22;10122;50.074;19.920;2022-07-23T11:35:41;36.00;68.40
19920;DHT22;10122;50.074;19.920;2022-07-23T11:38:16;35.90;69.00
19920;DHT22;10122;50.074;19.920;2022-07-23T11:40:44;35.90;63.30
19920;DHT22;10122;50.074;19.920;2022-07-23T11:43:11;35.90;66.50
19920;DHT22;10122;50.074;19.920;2022-07-23T11:45:48;35.80;65.80
19920;DHT22;10122;50.074;19.920;2022-07-23T11:48:29;35.80;68.90
19920;DHT22;10122;50.074;19.920;2022-07-23T11:50:56;35.80;58.40
19920;DHT22;10122;50.074;19.920;2022-07-23T11:53:30;35.80;70.00
19920;DHT22;10122;50.074;19.920;2022-07-23T11:56:23;35.80;69.00
19920;DHT22;10122;50.074;19.920;2022-07-23T11:58:55;35.70;67.70
19920;DHT22;10122;50.074;19.920;2022-07-23T12:01:22;35.70;68.90
19920;DHT22;10122;50.074;19.920;2022-07-23T12:03:51;35.70;69.30
19920;DHT22;10122;50.074;19.920;2022-07-23T12:06:17;35.70;64.70
19920;DHT22;10122;50.074;19.920;2022-07-23T12:08:43;35.60;60.00
19920;DHT22;10122;50.074;19.920;2022-07-23T12:11:12;35.60;67.90
19920;DHT22;10122;50.074;19.920;2022-07-23T12:13:38;35.60;69.00
19920;DHT22;10122;50.074;19.920;2022-07-23T12:16:03;35.50;58.40
19920;DHT22;10122;50.074;19.920;2022-07-23T12:18:30;35.40;60.30
19920;DHT22;10122;50.074;19.920;2022-07-23T12:20:57;35.40;70.20
19920;DHT22;10122;50.074;19.920;2022-07-23T12:23:28;35.40;67.40
19920;DHT22;10122;50.074;19.920;2022-07-23T12:25:54;35.30;61.60
19920;DHT22;10122;50.074;19.920;2022-07-23T12:28:22;35.30;66.80
19920;DHT22;10122;50.074;19.920;2022-07-23T12:30:50;35.30;69.00
19920;DHT22;10122;50.074;19.920;2022-07-23T12:33:39;35.40;59.70
19920;DHT22;10122;50.074;19.920;2022-07-23T12:36:07;35.30;69.50
19920;DHT22;10122;50.074;19.920;2022-07-23T12:38:48;35.30;65.70
19920;DHT22;10122;50.074;19.920;2022-07-23T12:41:16;35.40;66.10
19920;DHT22;10122;50.074;19.920;2022-07-23T12:43:44;35.40;68.10
19920;DHT22;10122;50.074;19.920;2022-07-23T12:46:18;35.40;68.30
19920;DHT22;10122;50.074;19.920;2022-07-23T12:51:30;35.20;59.30
19920;DHT22;10122;50.074;19.920;2022-07-23T12:54:08;35.30;65.40
19920;DHT22;10122;50.074;19.920;2022-07-23T12:56:39;35.30;56.40
19920;DHT22;10122;50.074;19.920;2022-07-23T12:59:06;35.40;60.10
19920;DHT22;10122;50.074;19.920;2022-07-23T13:01:56;35.40;57.60
19920;DHT22;10122;50.074;19.920;2022-07-23T13:04:25;35.50;64.50
19920;DHT22;10122;50.074;19.920;2022-07-23T13:06:59;35.40;56.90
19920;DHT22;10122;50.074;19.920;2022-07-23T13:09:31;35.40;64.90
19920;DHT22;10122;50.074;19.920;2022-07-23T13:11:57;35.40;61.80
19920;DHT22;10122;50.074;19.920;2022-07-23T13:14:24;35.40;59.90
19920;DHT22;10122;50.074;19.920;2022-07-23T13:16:51;35.40;59.70
19920;DHT22;10122;50.074;19.920;2022-07-23T13:19:18;35.40;62.30
19920;DHT22;10122;50.074;19.920;2022-07-23T13:21:44;35.50;56.20
19920;DHT22;10122;50.074;19.920;2022-07-23T13:24:11;35.50;57.10
19920;DHT22;10122;50.074;19.920;2022-07-23T13:26:38;35.40;61.50
19920;DHT22;10122;50.074;19.920;2022-07-23T13:29:05;35.50;63.30
19920;DHT22;10122;50.074;19.920;2022-07-23T13:31:30;35.60;62.60
19920;DHT22;10122;50.074;19.920;2022-07-23T13:33:56;35.60;56.70
19920;DHT22;10122;50.074;19.920;2022-07-23T13:36:22;35.70;62.60
19920;DHT22;10122;50.074;19.920;2022-07-23T13:38:47;35.70;58.10
19920;DHT22;10122;50.074;19.920;2022-07-23T13:43:57;35.80;55.20
19920;DHT22;10122;50.074;19.920;2022-07-23T13:46:23;35.80;61.20
19920;DHT22;10122;50.074;19.920;2022-07-23T13:48:49;35.90;63.30
19920;DHT22;10122;50.074;19.920;2022-07-23T13:51:14;36.00;66.10
19920;DHT22;10122;50.074;19.920;2022-07-23T13:53:41;36.00;70.80
19920;DHT22;10122;50.074;19.920;2022-07-23T13:56:07;35.80;58.40
19920;DHT22;10122;50.074;19.920;2022-07-23T13:58:32;35.70;59.10
19920;DHT22;10122;50.074;19.920;2022-07-23T14:00:58;35.70;57.20
19920;DHT22;10122;50.074;19.920;2022-07-23T14:03:24;35.70;62.10
19920;DHT22;10122;50.074;19.920;2022-07-23T14:05:50;35.70;68.40
19920;DHT22;10122;50.074;19.920;2022-07-23T14:08:16;35.10;73.70
19920;DHT22;10122;50.074;19.920;2022-07-23T14:10:42;33.90;73.70
19920;DHT22;10122;50.074;19.920;2022-07-23T14:13:07;33.30;73.60
19920;DHT22;10122;50.074;19.920;2022-07-23T14:15:33;33.10;72.90
19920;DHT22;10122;50.074;19.920;2022-07-23T14:17:59;32.80;71.20
19920;DHT22;10122;50.074;19.920;2022-07-23T14:20:25;32.50;69.40
19920;DHT22;10122;50.074;19.920;2022-07-23T14:22:52;32.40;70.00
19920;DHT22;10122;50.074;19.920;2022-07-23T14:25:18;32.80;69.20
19920;DHT22;10122;50.074;19.920;2022-07-23T14:27:45;33.30;69.10
19920;DHT22;10122;50.074;19.920;2022-07-23T14:30:11;33.40;68.50
19920;DHT22;10122;50.074;19.920;2022-07-23T14:32:37;33.30;69.10
19920;DHT22;10122;50.074;19.920;2022-07-23T14:35:04;33.40;68.90
19920;DHT22;10122;50.074;19.920;2022-07-23T14:37:29;33.60;69.00
19920;DHT22;10122;50.074;19.920;2022-07-23T14:39:55;33.70;68.30
19920;DHT22;10122;50.074;19.920;2022-07-23T14:42:21;33.90;68.70
19920;DHT22;10122;50.074;19.920;2022-07-23T14:44:47;34.00;69.30
19920;DHT22;10122;50.074;19.920;2022-07-23T14:47:12;34.00;69.00
19920;DHT22;10122;50.074;19.920;2022-07-23T14:49:38;34.00;69.20
19920;DHT22;10122;50.074;19.920;2022-07-23T14:52:05;34.00;69.30
19920;DHT22;10122;50.074;19.920;2022-07-23T14:54:31;34.00;69.90
19920;DHT22;10122;50.074;19.920;2022-07-23T14:56:58;34.00;70.10
19920;DHT22;10122;50.074;19.920;2022-07-23T14:59:24;33.90;70.30
19920;DHT22;10122;50.074;19.920;2022-07-23T15:01:49;33.90;69.90
19920;DHT22;10122;50.074;19.920;2022-07-23T15:04:15;33.90;70.80
19920;DHT22;10122;50.074;19.920;2022-07-23T15:06:41;33.80;70.90
19920;DHT22;10122;50.074;19.920;2022-07-23T15:09:07;33.80;64.10
19920;DHT22;10122;50.074;19.920;2022-07-23T15:11:33;33.60;69.00
19920;DHT22;10122;50.074;19.920;2022-07-23T15:14:04;33.10;66.60
19920;DHT22;10122;50.074;19.920;2022-07-23T15:16:30;32.50;63.90
19920;DHT22;10122;50.074;19.920;2022-07-23T15:18:56;32.00;62.60
19920;DHT22;10122;50.074;19.920;2022-07-23T15:21:21;31.50;66.70
19920;DHT22;10122;50.074;19.920;2022-07-23T15:23:47;31.20;71.40
19920;DHT22;10122;50.074;19.920;2022-07-23T15:26:15;30.90;77.40
19920;DHT22;10122;50.074;19.920;2022-07-23T15:28:41;30.30;83.30
19920;DHT22;10122;50.074;19.920;2022-07-23T15:31:07;29.60;90.60
19920;DHT22;10122;50.074;19.920;2022-07-23T15:33:33;29.30;99.90
19920;DHT22;10122;50.074;19.920;2022-07-23T15:35:59;29.20;99.90
19920;DHT22;10122;50.074;19.920;2022-07-23T15:38:26;28.40;99.90
19920;DHT22;10122;50.074;19.920;2022-07-23T15:40:53;27.50;99.90
19920;DHT22;10122;50.074;19.920;2022-07-23T15:43:20;27.40;99.90
19920;DHT22;10122;50.074;19.920;2022-07-23T15:45:45;27.50;99.90
19920;DHT22;10122;50.074;19.920;2022-07-23T15:48:12;28.00;99.90
19920;DHT22;10122;50.074;19.920;2022-07-23T15:50:38;28.40;99.90
19920;DHT22;10122;50.074;19.920;2022-07-23T15:53:04;28.80;99.90
19920;DHT22;10122;50.074;19.920;2022-07-23T15:55:30;28.90;99.90
19920;DHT22;10122;50.074;19.920;2022-07-23T15:57:56;29.10;99.90
19920;DHT22;10122;50.074;19.920;2022-07-23T16:00:21;29.30;99.90
19920;DHT22;10122;50.074;19.920;2022-07-23T16:02:47;29.40;99.90
19920;DHT22;10122;50.074;19.920;2022-07-23T16:05:13;29.50;99.90